sensor_id;sensor_type;location;lat;lon;timestamp;P1;durP1;ratioP1;P2;durP2;ratioP2
48122;SDS011;33907;47.426;18.906;2023-04-23T00:01:47;20.90;;;11.43;;
48122;SDS011;33907;47.426;18.906;2023-04-23T00:04:16;18.25;;;12.32;;
48122;SDS011;33907;47.426;18.906;2023-04-23T00:06:45;19.90;;;11.57;;
48122;SDS011;33907;47.426;18.906;2023-04-23T00:09:14;18.48;;;11.30;;
48122;SDS011;33907;47.426;18.906;2023-04-23T00:11:43;17.42;;;10.30;;
48122;SDS011;33907;47.426;18.906;2023-04-23T00:14:11;19.70;;;10.95;;
48122;SDS011;33907;47.426;18.906;2023-04-23T00:16:38;19.55;;;10.98;;
48122;SDS011;33907;47.426;18.906;2023-04-23T00:19:07;20.45;;;11.12;;
48122;SDS011;33907;47.426;18.906;2023-04-23T00:21:34;18.45;;;10.43;;
48122;SDS011;33907;47.426;18.906;2023-04-23T00:24:02;18.05;;;10.50;;
48122;SDS011;33907;47.426;18.906;2023-04-23T00:26:30;20.67;;;10.80;;
48122;SDS011;33907;47.426;18.906;2023-04-23T00:28:57;19.17;;;10.45;;
48122;SDS011;33907;47.426;18.906;2023-04-23T00:31:25;19.75;;;11.50;;
48122;SDS011;33907;47.426;18.906;2023-04-23T00:33:54;18.05;;;10.95;;
48122;SDS011;33907;47.426;18.906;2023-04-23T00:36:22;16.23;;;10.45;;
48122;SDS011;33907;47.426;18.906;2023-04-23T00:38:49;19.85;;;11.60;;
48122;SDS011;33907;47.426;18.906;2023-04-23T00:41:17;20.48;;;11.80;;
48122;SDS011;33907;47.426;18.906;2023-04-23T00:43:45;17.42;;;11.00;;
48122;SDS011;33907;47.426;18.906;2023-04-23T00:46:15;18.98;;;9.95;;
48122;SDS011;33907;47.426;18.906;2023-04-23T00:48:44;16.10;;;9.52;;
48122;SDS011;33907;47.426;18.906;2023-04-23T00:51:12;16.80;;;9.88;;
48122;SDS011;33907;47.426;18.906;2023-04-23T00:53:39;13.52;;;10.05;;
48122;SDS011;33907;47.426;18.906;2023-04-23T00:56:07;15.68;;;9.13;;
48122;SDS011;33907;47.426;18.906;2023-04-23T00:58:35;15.70;;;9.77;;
48122;SDS011;33907;47.426;18.906;2023-04-23T01:01:03;15.00;;;9.30;;
48122;SDS011;33907;47.426;18.906;2023-04-23T01:03:31;16.25;;;9.73;;
48122;SDS011;33907;47.426;18.906;2023-04-23T01:06:02;13.95;;;9.45;;
48122;SDS011;33907;47.426;18.906;2023-04-23T01:08:30;14.77;;;10.35;;
48122;SDS011;33907;47.426;18.906;2023-04-23T01:10:58;18.58;;;10.95;;
48122;SDS011;33907;47.426;18.906;2023-04-23T01:13:26;16.50;;;10.25;;
48122;SDS011;33907;47.426;18.906;2023-04-23T01:15:56;18.30;;;10.70;;
48122;SDS011;33907;47.426;18.906;2023-04-23T01:18:23;14.25;;;9.23;;
48122;SDS011;33907;47.426;18.906;2023-04-23T01:20:51;19.55;;;10.40;;
48122;SDS011;33907;47.426;18.906;2023-04-23T01:23:18;13.77;;;9.43;;
48122;SDS011;33907;47.426;18.906;2023-04-23T01:25:46;17.55;;;9.48;;
48122;SDS011;33907;47.426;18.906;2023-04-23T01:28:14;15.32;;;9.93;;
48122;SDS011;33907;47.426;18.906;2023-04-23T01:30:42;15.48;;;9.70;;
48122;SDS011;33907;47.426;18.906;2023-04-23T01:33:10;18.42;;;10.15;;
48122;SDS011;33907;47.426;18.906;2023-04-23T01:35:38;15.85;;;10.13;;
48122;SDS011;33907;47.426;18.906;2023-04-23T01:38:08;17.87;;;9.80;;
48122;SDS011;33907;47.426;18.906;2023-04-23T01:40:37;12.88;;;9.85;;
48122;SDS011;33907;47.426;18.906;2023-04-23T01:43:06;16.40;;;9.32;;
48122;SDS011;33907;47.426;18.906;2023-04-23T01:45:34;17.02;;;9.77;;
48122;SDS011;33907;47.426;18.906;2023-04-23T01:48:02;14.23;;;8.98;;
48122;SDS011;33907;47.426;18.906;2023-04-23T01:50:30;16.67;;;9.88;;
48122;SDS011;33907;47.426;18.906;2023-04-23T01:52:57;14.23;;;9.48;;
48122;SDS011;33907;47.426;18.906;2023-04-23T01:55:25;14.07;;;9.63;;
48122;SDS011;33907;47.426;18.906;2023-04-23T01:57:53;14.18;;;9.93;;
48122;SDS011;33907;47.426;18.906;2023-04-23T02:00:20;18.77;;;10.68;;
48122;SDS011;33907;47.426;18.906;2023-04-23T02:02:48;18.23;;;10.07;;
48122;SDS011;33907;47.426;18.906;2023-04-23T02:05:19;17.50;;;9.95;;
48122;SDS011;33907;47.426;18.906;2023-04-23T02:07:47;15.90;;;10.68;;
48122;SDS011;33907;47.426;18.906;2023-04-23T02:10:16;15.07;;;9.80;;
48122;SDS011;33907;47.426;18.906;2023-04-23T02:12:45;17.45;;;10.35;;
48122;SDS011;33907;47.426;18.906;2023-04-23T02:15:13;17.10;;;10.15;;
48122;SDS011;33907;47.426;18.906;2023-04-23T02:17:41;15.18;;;10.20;;
48122;SDS011;33907;47.426;18.906;2023-04-23T02:20:09;15.82;;;9.82;;
48122;SDS011;33907;47.426;18.906;2023-04-23T02:22:38;12.10;;;9.48;;
48122;SDS011;33907;47.426;18.906;2023-04-23T02:25:06;16.00;;;10.75;;
48122;SDS011;33907;47.426;18.906;2023-04-23T02:27:35;15.25;;;9.95;;
48122;SDS011;33907;47.426;18.906;2023-04-23T02:30:03;14.82;;;9.80;;
48122;SDS011;33907;47.426;18.906;2023-04-23T02:32:30;13.62;;;9.25;;
48122;SDS011;33907;47.426;18.906;2023-04-23T02:34:59;17.25;;;9.73;;
48122;SDS011;33907;47.426;18.906;2023-04-23T02:37:27;11.07;;;8.38;;
48122;SDS011;33907;47.426;18.906;2023-04-23T02:39:55;15.35;;;9.88;;
48122;SDS011;33907;47.426;18.906;2023-04-23T02:42:23;13.95;;;10.07;;
48122;SDS011;33907;47.426;18.906;2023-04-23T02:44:50;13.05;;;8.85;;
48122;SDS011;33907;47.426;18.906;2023-04-23T02:47:17;15.93;;;9.73;;
48122;SDS011;33907;47.426;18.906;2023-04-23T02:49:45;16.98;;;9.48;;
48122;SDS011;33907;47.426;18.906;2023-04-23T02:52:13;14.02;;;9.55;;
48122;SDS011;33907;47.426;18.906;2023-04-23T02:54:40;12.48;;;9.27;;
48122;SDS011;33907;47.426;18.906;2023-04-23T02:57:09;15.45;;;10.23;;
48122;SDS011;33907;47.426;18.906;2023-04-23T02:59:37;16.70;;;10.32;;
48122;SDS011;33907;47.426;18.906;2023-04-23T03:02:04;13.32;;;9.43;;
48122;SDS011;33907;47.426;18.906;2023-04-23T03:04:32;15.35;;;9.10;;
48122;SDS011;33907;47.426;18.906;2023-04-23T03:07:00;15.95;;;9.52;;
48122;SDS011;33907;47.426;18.906;2023-04-23T03:09:27;16.52;;;9.77;;
48122;SDS011;33907;47.426;18.906;2023-04-23T03:11:55;14.18;;;9.73;;
48122;SDS011;33907;47.426;18.906;2023-04-23T03:14:23;15.63;;;10.25;;
48122;SDS011;33907;47.426;18.906;2023-04-23T03:16:51;13.60;;;9.65;;
48122;SDS011;33907;47.426;18.906;2023-04-23T03:19:19;17.70;;;9.50;;
48122;SDS011;33907;47.426;18.906;2023-04-23T03:21:46;16.80;;;9.00;;
48122;SDS011;33907;47.426;18.906;2023-04-23T03:24:14;14.55;;;9.57;;
48122;SDS011;33907;47.426;18.906;2023-04-23T03:26:43;13.93;;;9.50;;
48122;SDS011;33907;47.426;18.906;2023-04-23T03:29:11;12.98;;;8.98;;
48122;SDS011;33907;47.426;18.906;2023-04-23T03:31:38;11.82;;;9.63;;
48122;SDS011;33907;47.426;18.906;2023-04-23T03:34:07;15.35;;;9.23;;
48122;SDS011;33907;47.426;18.906;2023-04-23T03:36:34;14.68;;;9.23;;
48122;SDS011;33907;47.426;18.906;2023-04-23T03:39:03;13.95;;;10.02;;
48122;SDS011;33907;47.426;18.906;2023-04-23T03:41:32;15.57;;;10.35;;
48122;SDS011;33907;47.426;18.906;2023-04-23T03:47:02;13.80;;;10.35;;
48122;SDS011;33907;47.426;18.906;2023-04-23T03:49:30;14.57;;;10.35;;
48122;SDS011;33907;47.426;18.906;2023-04-23T03:51:57;13.35;;;10.20;;
48122;SDS011;33907;47.426;18.906;2023-04-23T03:54:25;16.40;;;10.43;;
48122;SDS011;33907;47.426;18.906;2023-04-23T03:56:54;15.18;;;9.48;;
48122;SDS011;33907;47.426;18.906;2023-04-23T03:59:23;16.42;;;10.63;;
48122;SDS011;33907;47.426;18.906;2023-04-23T04:01:51;15.82;;;10.10;;
48122;SDS011;33907;47.426;18.906;2023-04-23T04:04:19;15.35;;;9.90;;
48122;SDS011;33907;47.426;18.906;2023-04-23T04:06:47;15.30;;;10.07;;
48122;SDS011;33907;47.426;18.906;2023-04-23T04:09:15;17.48;;;10.43;;
48122;SDS011;33907;47.426;18.906;2023-04-23T04:11:43;15.27;;;10.73;;
48122;SDS011;33907;47.426;18.906;2023-04-23T04:14:11;14.32;;;10.57;;
48122;SDS011;33907;47.426;18.906;2023-04-23T04:16:38;18.20;;;11.57;;
48122;SDS011;33907;47.426;18.906;2023-04-23T04:19:06;15.52;;;10.80;;
48122;SDS011;33907;47.426;18.906;2023-04-23T04:21:33;14.15;;;10.85;;
48122;SDS011;33907;47.426;18.906;2023-04-23T04:24:01;15.95;;;11.40;;
48122;SDS011;33907;47.426;18.906;2023-04-23T04:26:31;14.15;;;10.27;;
48122;SDS011;33907;47.426;18.906;2023-04-23T04:29:00;19.80;;;11.32;;
48122;SDS011;33907;47.426;18.906;2023-04-23T04:31:30;16.95;;;11.77;;
48122;SDS011;33907;47.426;18.906;2023-04-23T04:33:58;16.35;;;10.88;;
48122;SDS011;33907;47.426;18.906;2023-04-23T04:36:25;16.55;;;9.90;;
48122;SDS011;33907;47.426;18.906;2023-04-23T04:38:55;16.35;;;10.48;;
48122;SDS011;33907;47.426;18.906;2023-04-23T04:41:24;15.63;;;10.27;;
48122;SDS011;33907;47.426;18.906;2023-04-23T04:43:52;16.75;;;10.88;;
48122;SDS011;33907;47.426;18.906;2023-04-23T04:46:20;17.15;;;10.50;;
48122;SDS011;33907;47.426;18.906;2023-04-23T04:48:48;16.40;;;11.02;;
48122;SDS011;33907;47.426;18.906;2023-04-23T04:51:16;14.90;;;10.80;;
48122;SDS011;33907;47.426;18.906;2023-04-23T04:53:43;17.77;;;10.40;;
48122;SDS011;33907;47.426;18.906;2023-04-23T04:56:11;14.63;;;10.90;;
48122;SDS011;33907;47.426;18.906;2023-04-23T04:58:38;15.10;;;10.32;;
48122;SDS011;33907;47.426;18.906;2023-04-23T05:01:06;15.77;;;10.63;;
48122;SDS011;33907;47.426;18.906;2023-04-23T05:03:34;17.73;;;11.48;;
48122;SDS011;33907;47.426;18.906;2023-04-23T05:06:03;15.00;;;10.65;;
48122;SDS011;33907;47.426;18.906;2023-04-23T05:08:31;19.05;;;10.23;;
48122;SDS011;33907;47.426;18.906;2023-04-23T05:10:58;14.68;;;10.68;;
48122;SDS011;33907;47.426;18.906;2023-04-23T05:13:27;13.50;;;10.38;;
48122;SDS011;33907;47.426;18.906;2023-04-23T05:15:54;15.00;;;10.13;;
48122;SDS011;33907;47.426;18.906;2023-04-23T05:18:22;17.83;;;11.80;;
48122;SDS011;33907;47.426;18.906;2023-04-23T05:20:49;16.65;;;10.50;;
48122;SDS011;33907;47.426;18.906;2023-04-23T05:23:17;16.10;;;9.98;;
48122;SDS011;33907;47.426;18.906;2023-04-23T05:25:45;19.00;;;11.12;;
48122;SDS011;33907;47.426;18.906;2023-04-23T05:28:13;18.02;;;11.52;;
48122;SDS011;33907;47.426;18.906;2023-04-23T05:30:41;19.77;;;10.85;;
48122;SDS011;33907;47.426;18.906;2023-04-23T05:33:09;17.05;;;11.05;;
48122;SDS011;33907;47.426;18.906;2023-04-23T05:35:39;16.98;;;11.95;;
48122;SDS011;33907;47.426;18.906;2023-04-23T05:38:07;18.98;;;9.48;;
48122;SDS011;33907;47.426;18.906;2023-04-23T05:40:35;14.70;;;9.48;;
48122;SDS011;33907;47.426;18.906;2023-04-23T05:43:02;13.85;;;9.98;;
48122;SDS011;33907;47.426;18.906;2023-04-23T05:45:30;14.48;;;9.32;;
48122;SDS011;33907;47.426;18.906;2023-04-23T05:47:57;14.07;;;9.15;;
48122;SDS011;33907;47.426;18.906;2023-04-23T05:50:26;13.85;;;9.43;;
48122;SDS011;33907;47.426;18.906;2023-04-23T05:52:53;14.57;;;8.50;;
48122;SDS011;33907;47.426;18.906;2023-04-23T05:55:21;12.70;;;8.65;;
48122;SDS011;33907;47.426;18.906;2023-04-23T05:57:50;14.73;;;8.88;;
48122;SDS011;33907;47.426;18.906;2023-04-23T06:00:17;15.88;;;9.15;;
48122;SDS011;33907;47.426;18.906;2023-04-23T06:02:45;13.50;;;8.95;;
48122;SDS011;33907;47.426;18.906;2023-04-23T06:05:15;12.20;;;7.95;;
48122;SDS011;33907;47.426;18.906;2023-04-23T06:07:43;13.38;;;8.75;;
48122;SDS011;33907;47.426;18.906;2023-04-23T06:10:10;14.32;;;8.90;;
48122;SDS011;33907;47.426;18.906;2023-04-23T06:12:39;14.63;;;9.10;;
48122;SDS011;33907;47.426;18.906;2023-04-23T06:15:08;12.45;;;8.35;;
48122;SDS011;33907;47.426;18.906;2023-04-23T06:17:37;13.27;;;8.43;;
48122;SDS011;33907;47.426;18.906;2023-04-23T06:20:05;13.07;;;7.80;;
48122;SDS011;33907;47.426;18.906;2023-04-23T06:22:33;10.50;;;7.95;;
48122;SDS011;33907;47.426;18.906;2023-04-23T06:25:01;14.38;;;8.38;;
48122;SDS011;33907;47.426;18.906;2023-04-23T06:27:28;13.32;;;7.85;;
48122;SDS011;33907;47.426;18.906;2023-04-23T06:29:57;13.65;;;8.02;;
48122;SDS011;33907;47.426;18.906;2023-04-23T06:32:25;14.32;;;7.65;;
48122;SDS011;33907;47.426;18.906;2023-04-23T06:34:52;12.20;;;7.72;;
48122;SDS011;33907;47.426;18.906;2023-04-23T06:37:28;12.43;;;8.13;;
48122;SDS011;33907;47.426;18.906;2023-04-23T06:39:58;10.60;;;7.28;;
48122;SDS011;33907;47.426;18.906;2023-04-23T06:42:25;13.90;;;8.25;;
48122;SDS011;33907;47.426;18.906;2023-04-23T06:44:54;11.52;;;7.28;;
48122;SDS011;33907;47.426;18.906;2023-04-23T06:47:23;12.55;;;7.68;;
48122;SDS011;33907;47.426;18.906;2023-04-23T06:49:50;13.98;;;8.02;;
48122;SDS011;33907;47.426;18.906;2023-04-23T06:52:18;10.68;;;7.07;;
48122;SDS011;33907;47.426;18.906;2023-04-23T06:54:45;11.55;;;7.05;;
48122;SDS011;33907;47.426;18.906;2023-04-23T06:57:13;12.80;;;6.78;;
48122;SDS011;33907;47.426;18.906;2023-04-23T06:59:41;13.90;;;7.53;;
48122;SDS011;33907;47.426;18.906;2023-04-23T07:02:08;12.63;;;6.65;;
48122;SDS011;33907;47.426;18.906;2023-04-23T07:04:36;12.88;;;6.97;;
48122;SDS011;33907;47.426;18.906;2023-04-23T07:07:03;13.93;;;8.13;;
48122;SDS011;33907;47.426;18.906;2023-04-23T07:09:31;14.43;;;8.63;;
48122;SDS011;33907;47.426;18.906;2023-04-23T07:11:59;13.45;;;7.47;;
48122;SDS011;33907;47.426;18.906;2023-04-23T07:14:27;15.77;;;8.07;;
48122;SDS011;33907;47.426;18.906;2023-04-23T07:16:55;16.87;;;9.25;;
48122;SDS011;33907;47.426;18.906;2023-04-23T07:19:23;17.08;;;8.65;;
48122;SDS011;33907;47.426;18.906;2023-04-23T07:21:52;17.12;;;10.93;;
48122;SDS011;33907;47.426;18.906;2023-04-23T07:24:19;20.12;;;10.00;;
48122;SDS011;33907;47.426;18.906;2023-04-23T07:26:47;17.85;;;10.05;;
48122;SDS011;33907;47.426;18.906;2023-04-23T07:29:15;16.52;;;8.85;;
48122;SDS011;33907;47.426;18.906;2023-04-23T07:31:42;16.23;;;8.80;;
48122;SDS011;33907;47.426;18.906;2023-04-23T07:34:15;14.15;;;8.82;;
48122;SDS011;33907;47.426;18.906;2023-04-23T07:36:42;32.22;;;7.53;;
48122;SDS011;33907;47.426;18.906;2023-04-23T07:39:10;14.45;;;7.75;;
48122;SDS011;33907;47.426;18.906;2023-04-23T07:41:38;13.73;;;6.97;;
48122;SDS011;33907;47.426;18.906;2023-04-23T07:44:08;9.52;;;6.43;;
48122;SDS011;33907;47.426;18.906;2023-04-23T07:46:35;11.93;;;6.82;;
48122;SDS011;33907;47.426;18.906;2023-04-23T07:49:03;9.82;;;6.18;;
48122;SDS011;33907;47.426;18.906;2023-04-23T07:51:30;14.00;;;6.68;;
48122;SDS011;33907;47.426;18.906;2023-04-23T07:53:58;15.23;;;6.70;;
48122;SDS011;33907;47.426;18.906;2023-04-23T07:56:26;9.07;;;5.93;;
48122;SDS011;33907;47.426;18.906;2023-04-23T07:58:53;11.82;;;6.97;;
48122;SDS011;33907;47.426;18.906;2023-04-23T08:01:22;10.75;;;6.78;;
48122;SDS011;33907;47.426;18.906;2023-04-23T08:03:50;10.70;;;6.05;;
48122;SDS011;33907;47.426;18.906;2023-04-23T08:06:18;13.55;;;6.97;;
48122;SDS011;33907;47.426;18.906;2023-04-23T08:08:46;10.40;;;6.50;;
48122;SDS011;33907;47.426;18.906;2023-04-23T08:11:13;11.55;;;6.28;;
48122;SDS011;33907;47.426;18.906;2023-04-23T08:13:41;13.55;;;7.37;;
48122;SDS011;33907;47.426;18.906;2023-04-23T08:16:09;12.68;;;6.37;;
48122;SDS011;33907;47.426;18.906;2023-04-23T08:18:37;11.93;;;6.43;;
48122;SDS011;33907;47.426;18.906;2023-04-23T08:21:06;12.85;;;5.87;;
48122;SDS011;33907;47.426;18.906;2023-04-23T08:23:33;16.35;;;7.07;;
48122;SDS011;33907;47.426;18.906;2023-04-23T08:26:01;12.90;;;6.80;;
48122;SDS011;33907;47.426;18.906;2023-04-23T08:28:28;13.55;;;9.25;;
48122;SDS011;33907;47.426;18.906;2023-04-23T08:30:57;16.73;;;10.10;;
48122;SDS011;33907;47.426;18.906;2023-04-23T08:33:24;13.52;;;8.70;;
48122;SDS011;33907;47.426;18.906;2023-04-23T08:35:52;14.32;;;9.18;;
48122;SDS011;33907;47.426;18.906;2023-04-23T08:38:19;14.77;;;9.13;;
48122;SDS011;33907;47.426;18.906;2023-04-23T08:40:47;13.32;;;8.30;;
48122;SDS011;33907;47.426;18.906;2023-04-23T08:43:16;13.52;;;8.60;;
48122;SDS011;33907;47.426;18.906;2023-04-23T08:45:46;13.95;;;8.10;;
48122;SDS011;33907;47.426;18.906;2023-04-23T08:48:14;10.88;;;7.78;;
48122;SDS011;33907;47.426;18.906;2023-04-23T08:50:43;14.23;;;7.62;;
48122;SDS011;33907;47.426;18.906;2023-04-23T08:53:10;11.70;;;6.57;;
48122;SDS011;33907;47.426;18.906;2023-04-23T08:55:45;12.55;;;6.55;;
48122;SDS011;33907;47.426;18.906;2023-04-23T08:58:13;16.77;;;6.78;;
48122;SDS011;33907;47.426;18.906;2023-04-23T09:00:41;11.00;;;6.15;;
48122;SDS011;33907;47.426;18.906;2023-04-23T09:03:10;13.05;;;6.25;;
48122;SDS011;33907;47.426;18.906;2023-04-23T09:05:38;13.25;;;6.22;;
48122;SDS011;33907;47.426;18.906;2023-04-23T09:08:07;10.98;;;6.22;;
48122;SDS011;33907;47.426;18.906;2023-04-23T09:10:36;10.63;;;6.43;;
48122;SDS011;33907;47.426;18.906;2023-04-23T09:13:04;11.23;;;6.20;;
48122;SDS011;33907;47.426;18.906;2023-04-23T09:15:31;8.45;;;6.00;;
48122;SDS011;33907;47.426;18.906;2023-04-23T09:17:59;10.05;;;5.37;;
48122;SDS011;33907;47.426;18.906;2023-04-23T09:20:26;13.88;;;5.32;;
48122;SDS011;33907;47.426;18.906;2023-04-23T09:22:54;10.80;;;5.93;;
48122;SDS011;33907;47.426;18.906;2023-04-23T09:25:22;9.82;;;5.28;;
48122;SDS011;33907;47.426;18.906;2023-04-23T09:27:51;8.98;;;5.30;;
48122;SDS011;33907;47.426;18.906;2023-04-23T09:30:19;7.93;;;4.80;;
48122;SDS011;33907;47.426;18.906;2023-04-23T09:32:47;12.70;;;5.30;;
48122;SDS011;33907;47.426;18.906;2023-04-23T09:35:16;9.63;;;5.07;;
48122;SDS011;33907;47.426;18.906;2023-04-23T09:37:49;8.30;;;4.80;;
48122;SDS011;33907;47.426;18.906;2023-04-23T09:40:21;9.15;;;5.32;;
48122;SDS011;33907;47.426;18.906;2023-04-23T09:42:50;9.43;;;4.55;;
48122;SDS011;33907;47.426;18.906;2023-04-23T09:45:22;9.50;;;5.53;;
48122;SDS011;33907;47.426;18.906;2023-04-23T09:47:53;10.45;;;4.80;;
48122;SDS011;33907;47.426;18.906;2023-04-23T09:50:32;8.93;;;4.05;;
48122;SDS011;33907;47.426;18.906;2023-04-23T09:53:04;8.93;;;4.55;;
48122;SDS011;33907;47.426;18.906;2023-04-23T09:55:34;7.87;;;4.12;;
48122;SDS011;33907;47.426;18.906;2023-04-23T09:58:06;9.57;;;4.00;;
48122;SDS011;33907;47.426;18.906;2023-04-23T10:00:37;9.13;;;4.37;;
48122;SDS011;33907;47.426;18.906;2023-04-23T10:03:06;8.52;;;4.62;;
48122;SDS011;33907;47.426;18.906;2023-04-23T10:05:38;8.93;;;4.00;;
48122;SDS011;33907;47.426;18.906;2023-04-23T10:08:13;8.30;;;4.18;;
48122;SDS011;33907;47.426;18.906;2023-04-23T10:10:42;8.13;;;4.87;;
48122;SDS011;33907;47.426;18.906;2023-04-23T10:13:30;9.43;;;4.68;;
48122;SDS011;33907;47.426;18.906;2023-04-23T10:15:58;8.30;;;4.60;;
48122;SDS011;33907;47.426;18.906;2023-04-23T10:18:44;7.55;;;3.97;;
48122;SDS011;33907;47.426;18.906;2023-04-23T10:21:12;7.55;;;3.80;;
48122;SDS011;33907;47.426;18.906;2023-04-23T10:23:41;6.60;;;3.60;;
48122;SDS011;33907;47.426;18.906;2023-04-23T10:26:10;7.18;;;4.62;;
48122;SDS011;33907;47.426;18.906;2023-04-23T10:28:42;5.85;;;3.30;;
48122;SDS011;33907;47.426;18.906;2023-04-23T10:31:12;6.68;;;3.97;;
48122;SDS011;33907;47.426;18.906;2023-04-23T10:33:42;7.95;;;3.28;;
48122;SDS011;33907;47.426;18.906;2023-04-23T10:36:25;7.93;;;3.28;;
48122;SDS011;33907;47.426;18.906;2023-04-23T10:38:53;7.05;;;3.33;;
48122;SDS011;33907;47.426;18.906;2023-04-23T10:41:28;9.23;;;4.10;;
48122;SDS011;33907;47.426;18.906;2023-04-23T10:44:01;8.18;;;3.45;;
48122;SDS011;33907;47.426;18.906;2023-04-23T10:46:30;8.20;;;3.47;;
48122;SDS011;33907;47.426;18.906;2023-04-23T10:51:44;6.82;;;3.20;;
48122;SDS011;33907;47.426;18.906;2023-04-23T10:54:18;6.82;;;3.33;;
48122;SDS011;33907;47.426;18.906;2023-04-23T10:56:46;6.25;;;2.90;;
48122;SDS011;33907;47.426;18.906;2023-04-23T10:59:24;5.40;;;2.95;;
48122;SDS011;33907;47.426;18.906;2023-04-23T11:01:53;6.05;;;2.97;;
48122;SDS011;33907;47.426;18.906;2023-04-23T11:04:27;7.40;;;3.25;;
48122;SDS011;33907;47.426;18.906;2023-04-23T11:06:57;51.28;;;39.53;;
48122;SDS011;33907;47.426;18.906;2023-04-23T11:12:06;5.47;;;2.33;;
48122;SDS011;33907;47.426;18.906;2023-04-23T11:14:54;7.50;;;3.00;;
48122;SDS011;33907;47.426;18.906;2023-04-23T11:17:23;7.20;;;2.97;;
48122;SDS011;33907;47.426;18.906;2023-04-23T11:22:33;8.75;;;2.90;;
48122;SDS011;33907;47.426;18.906;2023-04-23T11:25:08;6.80;;;3.35;;
48122;SDS011;33907;47.426;18.906;2023-04-23T11:27:43;7.45;;;2.45;;
48122;SDS011;33907;47.426;18.906;2023-04-23T11:30:12;7.30;;;2.62;;
48122;SDS011;33907;47.426;18.906;2023-04-23T11:32:45;6.45;;;2.78;;
48122;SDS011;33907;47.426;18.906;2023-04-23T11:35:17;5.60;;;2.70;;
48122;SDS011;33907;47.426;18.906;2023-04-23T11:37:56;6.95;;;3.03;;
48122;SDS011;33907;47.426;18.906;2023-04-23T11:40:23;5.72;;;2.47;;
48122;SDS011;33907;47.426;18.906;2023-04-23T11:42:52;7.80;;;3.00;;
48122;SDS011;33907;47.426;18.906;2023-04-23T11:45:26;5.47;;;3.03;;
48122;SDS011;33907;47.426;18.906;2023-04-23T11:47:55;6.12;;;3.45;;
48122;SDS011;33907;47.426;18.906;2023-04-23T11:50:26;5.78;;;2.95;;
48122;SDS011;33907;47.426;18.906;2023-04-23T11:52:55;7.07;;;3.03;;
48122;SDS011;33907;47.426;18.906;2023-04-23T11:55:22;6.12;;;3.47;;
48122;SDS011;33907;47.426;18.906;2023-04-23T11:57:51;8.63;;;3.10;;
48122;SDS011;33907;47.426;18.906;2023-04-23T12:00:22;6.62;;;3.08;;
48122;SDS011;33907;47.426;18.906;2023-04-23T12:05:28;5.03;;;3.15;;
48122;SDS011;33907;47.426;18.906;2023-04-23T12:10:53;5.65;;;3.12;;
48122;SDS011;33907;47.426;18.906;2023-04-23T12:13:29;7.32;;;3.65;;
48122;SDS011;33907;47.426;18.906;2023-04-23T12:16:01;5.87;;;3.00;;
48122;SDS011;33907;47.426;18.906;2023-04-23T12:18:31;8.15;;;3.50;;
48122;SDS011;33907;47.426;18.906;2023-04-23T12:23:41;5.22;;;3.00;;
48122;SDS011;33907;47.426;18.906;2023-04-23T12:26:11;5.72;;;2.67;;
48122;SDS011;33907;47.426;18.906;2023-04-23T12:28:59;6.40;;;3.10;;
48122;SDS011;33907;47.426;18.906;2023-04-23T12:31:28;7.75;;;3.30;;
48122;SDS011;33907;47.426;18.906;2023-04-23T12:34:03;7.05;;;2.87;;
48122;SDS011;33907;47.426;18.906;2023-04-23T12:36:31;6.50;;;3.17;;
48122;SDS011;33907;47.426;18.906;2023-04-23T12:41:53;9.85;;;3.85;;
48122;SDS011;33907;47.426;18.906;2023-04-23T12:44:28;6.57;;;3.47;;
48122;SDS011;33907;47.426;18.906;2023-04-23T12:46:56;5.20;;;2.85;;
48122;SDS011;33907;47.426;18.906;2023-04-23T12:49:25;5.65;;;3.00;;
48122;SDS011;33907;47.426;18.906;2023-04-23T12:51:54;7.50;;;3.87;;
48122;SDS011;33907;47.426;18.906;2023-04-23T12:54:24;6.75;;;3.50;;
48122;SDS011;33907;47.426;18.906;2023-04-23T12:56:56;5.57;;;2.85;;
48122;SDS011;33907;47.426;18.906;2023-04-23T12:59:25;9.05;;;3.30;;
48122;SDS011;33907;47.426;18.906;2023-04-23T13:01:54;5.95;;;2.67;;
48122;SDS011;33907;47.426;18.906;2023-04-23T13:04:23;7.57;;;3.42;;
48122;SDS011;33907;47.426;18.906;2023-04-23T13:06:50;6.93;;;3.50;;
48122;SDS011;33907;47.426;18.906;2023-04-23T13:09:18;6.55;;;3.45;;
48122;SDS011;33907;47.426;18.906;2023-04-23T13:11:46;6.82;;;2.87;;
48122;SDS011;33907;47.426;18.906;2023-04-23T13:14:33;6.78;;;3.40;;
48122;SDS011;33907;47.426;18.906;2023-04-23T13:17:01;7.43;;;2.97;;
48122;SDS011;33907;47.426;18.906;2023-04-23T13:19:28;5.62;;;3.30;;
48122;SDS011;33907;47.426;18.906;2023-04-23T13:21:56;7.18;;;3.28;;
48122;SDS011;33907;47.426;18.906;2023-04-23T13:24:23;6.20;;;3.00;;
48122;SDS011;33907;47.426;18.906;2023-04-23T13:26:51;6.95;;;3.15;;
48122;SDS011;33907;47.426;18.906;2023-04-23T13:29:19;6.97;;;3.37;;
48122;SDS011;33907;47.426;18.906;2023-04-23T13:31:46;5.20;;;2.78;;
48122;SDS011;33907;47.426;18.906;2023-04-23T13:34:16;6.93;;;2.75;;
48122;SDS011;33907;47.426;18.906;2023-04-23T13:36:44;5.30;;;3.12;;
48122;SDS011;33907;47.426;18.906;2023-04-23T13:39:12;6.05;;;3.00;;
48122;SDS011;33907;47.426;18.906;2023-04-23T13:41:40;5.22;;;2.83;;
48122;SDS011;33907;47.426;18.906;2023-04-23T13:44:07;5.20;;;3.08;;
48122;SDS011;33907;47.426;18.906;2023-04-23T13:46:35;7.28;;;2.80;;
48122;SDS011;33907;47.426;18.906;2023-04-23T13:49:03;9.05;;;3.50;;
48122;SDS011;33907;47.426;18.906;2023-04-23T13:51:30;5.72;;;2.78;;
48122;SDS011;33907;47.426;18.906;2023-04-23T13:54:02;7.35;;;2.90;;
48122;SDS011;33907;47.426;18.906;2023-04-23T13:56:30;7.15;;;3.30;;
48122;SDS011;33907;47.426;18.906;2023-04-23T13:58:57;7.12;;;2.60;;
48122;SDS011;33907;47.426;18.906;2023-04-23T14:01:46;4.43;;;2.45;;
48122;SDS011;33907;47.426;18.906;2023-04-23T14:04:17;6.25;;;2.85;;
48122;SDS011;33907;47.426;18.906;2023-04-23T14:06:44;7.35;;;2.87;;
48122;SDS011;33907;47.426;18.906;2023-04-23T14:09:12;5.65;;;2.83;;
48122;SDS011;33907;47.426;18.906;2023-04-23T14:11:40;5.95;;;3.00;;
48122;SDS011;33907;47.426;18.906;2023-04-23T14:14:07;6.50;;;2.87;;
48122;SDS011;33907;47.426;18.906;2023-04-23T14:16:35;7.35;;;2.87;;
48122;SDS011;33907;47.426;18.906;2023-04-23T14:19:03;7.65;;;3.10;;
48122;SDS011;33907;47.426;18.906;2023-04-23T14:21:30;7.12;;;3.03;;
48122;SDS011;33907;47.426;18.906;2023-04-23T14:29:28;6.07;;;3.33;;
48122;SDS011;33907;47.426;18.906;2023-04-23T14:32:04;6.72;;;3.45;;
48122;SDS011;33907;47.426;18.906;2023-04-23T14:34:32;5.20;;;2.92;;
48122;SDS011;33907;47.426;18.906;2023-04-23T14:37:02;6.28;;;2.85;;
48122;SDS011;33907;47.426;18.906;2023-04-23T14:39:30;6.55;;;3.83;;
48122;SDS011;33907;47.426;18.906;2023-04-23T14:41:59;7.55;;;3.53;;
48122;SDS011;33907;47.426;18.906;2023-04-23T14:44:27;5.65;;;3.30;;
48122;SDS011;33907;47.426;18.906;2023-04-23T14:46:55;9.43;;;3.33;;
48122;SDS011;33907;47.426;18.906;2023-04-23T14:49:23;6.80;;;3.92;;
48122;SDS011;33907;47.426;18.906;2023-04-23T14:51:52;6.80;;;3.03;;
48122;SDS011;33907;47.426;18.906;2023-04-23T14:54:21;7.90;;;3.08;;
48122;SDS011;33907;47.426;18.906;2023-04-23T14:56:52;6.57;;;3.65;;
48122;SDS011;33907;47.426;18.906;2023-04-23T14:59:20;6.53;;;3.45;;
48122;SDS011;33907;47.426;18.906;2023-04-23T15:01:47;8.57;;;3.20;;